Time;durP1;ratioP1;P1;durP2;ratioP2;P2;SDS_P1;SDS_P2;PMS_P1;PMS_P2;Temp;Humidity;BMP_temperature;BMP_pressure;BME280_temperature;BME280_humidity;BME280_pressure;Samples;Min_cycle;Max_cycle;Signal;HPM_P1;HPM_P2
2023/07/31 00:01:24;;;;;;;7.90;3.83;;;17.10;99.90;;;;;;5030908;28;20041;-84
2023/07/31 00:03:50;;;;;;;5.22;3.88;;;17.10;99.90;;;;;;5031959;28;20115;-85
2023/07/31 00:06:15;;;;;;;6.25;3.70;;;17.20;99.90;;;;;;5030143;28;20045;-85
2023/07/31 00:08:41;;;;;;;6.53;3.60;;;17.20;99.90;;;;;;5030367;28;20041;-85
2023/07/31 00:11:07;;;;;;;7.03;4.20;;;17.20;99.90;;;;;;5031394;28;20394;-85
2023/07/31 00:13:33;;;;;;;6.22;3.92;;;17.20;99.90;;;;;;5031035;28;20045;-85
2023/07/31 00:15:59;;;;;;;8.73;4.32;;;17.10;99.90;;;;;;5014421;28;20455;-75
2023/07/31 00:18:25;;;;;;;6.97;4.32;;;17.10;99.90;;;;;;5031440;28;20132;-85
2023/07/31 00:20:50;;;;;;;8.88;4.72;;;17.10;99.90;;;;;;5030678;28;20115;-82
2023/07/31 00:23:16;;;;;;;7.22;4.38;;;17.10;99.90;;;;;;5030196;28;20046;-83
2023/07/31 00:25:42;;;;;;;8.50;4.13;;;17.00;99.90;;;;;;5031951;28;20072;-84
2023/07/31 00:28:07;;;;;;;7.13;4.07;;;16.90;99.90;;;;;;5029978;28;20407;-83
2023/07/31 00:30:33;;;;;;;7.63;4.65;;;16.90;99.90;;;;;;5031750;28;20057;-84
2023/07/31 00:32:59;;;;;;;7.18;3.50;;;16.80;99.90;;;;;;5031683;28;20510;-84
2023/07/31 00:35:24;;;;;;;7.38;3.70;;;16.70;99.90;;;;;;5031165;28;20127;-84
2023/07/31 00:37:50;;;;;;;5.82;4.15;;;16.60;99.90;;;;;;5031815;28;20080;-82
2023/07/31 00:40:16;;;;;;;5.40;3.58;;;16.60;99.90;;;;;;5031245;28;20045;-83
2023/07/31 00:42:41;;;;;;;5.25;3.67;;;16.50;99.90;;;;;;5031656;28;20079;-83
2023/07/31 00:45:07;;;;;;;5.53;2.80;;;16.50;99.90;;;;;;5032277;28;20049;-85
2023/07/31 00:47:34;;;;;;;6.57;3.45;;;16.40;99.90;;;;;;5035436;28;20541;-86
2023/07/31 00:50:00;;;;;;;4.13;3.20;;;16.40;99.90;;;;;;5035358;28;20144;-86
2023/07/31 00:52:25;;;;;;;4.53;3.25;;;16.40;99.90;;;;;;5050482;28;20088;-86
2023/07/31 00:54:51;;;;;;;6.45;3.63;;;16.30;99.90;;;;;;5035343;28;20502;-86
2023/07/31 00:57:17;;;;;;;4.43;3.40;;;16.30;99.90;;;;;;5034761;28;20063;-87
2023/07/31 00:59:43;;;;;;;5.32;3.22;;;16.30;99.90;;;;;;5035431;28;20050;-87
2023/07/31 01:02:09;;;;;;;5.50;3.60;;;16.30;99.90;;;;;;5033876;28;20053;-86
2023/07/31 01:04:35;;;;;;;5.32;3.47;;;16.30;99.90;;;;;;5033870;28;20060;-87
2023/07/31 01:07:11;;;;;;;4.28;3.05;;;16.30;99.90;;;;;;5034127;28;20132;-86
2023/07/31 01:09:45;;;;;;;4.63;3.05;;;16.30;99.90;;;;;;5034916;28;20045;-87
2023/07/31 01:12:16;;;;;;;5.50;3.05;;;16.30;99.90;;;;;;5034828;28;20046;-87
2023/07/31 01:15:11;;;;;;;5.55;3.28;;;16.30;99.90;;;;;;5034108;28;20057;-86
2023/07/31 01:17:40;;;;;;;5.53;3.17;;;16.20;99.90;;;;;;5036485;28;20138;-87
2023/07/31 01:20:33;;;;;;;5.50;3.08;;;16.20;99.90;;;;;;5040066;28;20041;-83
2023/07/31 01:23:20;;;;;;;4.60;2.97;;;16.30;99.90;;;;;;5036536;28;20057;-88
2023/07/31 01:25:58;;;;;;;4.57;2.90;;;16.30;99.90;;;;;;5036146;28;20195;-88
2023/07/31 01:28:30;;;;;;;6.07;2.60;;;16.30;99.90;;;;;;5034479;28;20140;-87
2023/07/31 01:30:58;;;;;;;3.63;2.38;;;16.30;99.90;;;;;;5034090;28;20049;-85
2023/07/31 01:33:24;;;;;;;5.18;2.40;;;16.30;99.90;;;;;;5034101;28;20049;-86
2023/07/31 01:35:50;;;;;;;5.15;2.70;;;16.30;99.90;;;;;;5034367;28;20394;-86
2023/07/31 01:38:21;;;;;;;3.70;2.67;;;16.30;99.90;;;;;;5034127;28;20041;-88
2023/07/31 01:40:52;;;;;;;4.72;3.00;;;16.30;99.90;;;;;;5034494;28;20052;-87
2023/07/31 01:43:18;;;;;;;4.50;2.53;;;16.30;99.90;;;;;;5034130;28;20372;-88
2023/07/31 01:45:43;;;;;;;6.55;3.45;;;16.30;99.90;;;;;;5034494;28;20141;-86
2023/07/31 01:48:09;;;;;;;6.75;3.30;;;16.40;99.90;;;;;;5034277;28;20128;-85
2023/07/31 01:50:35;;;;;;;5.38;3.05;;;16.40;99.90;;;;;;5033790;28;20045;-85
2023/07/31 01:53:00;;;;;;;5.47;3.10;;;16.30;99.90;;;;;;5038367;28;20069;-85
2023/07/31 01:55:26;;;;;;;5.95;3.60;;;16.30;99.90;;;;;;5052399;28;20046;-85
2023/07/31 01:57:53;;;;;;;4.95;3.33;;;16.30;99.90;;;;;;5041683;28;20048;-85
2023/07/31 02:00:19;;;;;;;4.07;3.00;;;16.30;99.90;;;;;;5034133;28;20080;-85
2023/07/31 02:02:44;;;;;;;4.60;3.15;;;16.30;99.90;;;;;;5034379;28;20041;-84
2023/07/31 02:05:10;;;;;;;4.80;2.90;;;16.30;99.90;;;;;;5016954;28;20142;-86
2023/07/31 02:07:35;;;;;;;5.28;3.05;;;16.30;99.90;;;;;;5033543;28;20582;-86
2023/07/31 02:10:01;;;;;;;3.65;2.72;;;16.30;99.90;;;;;;5033500;28;20068;-87
2023/07/31 02:12:30;;;;;;;4.55;2.92;;;16.30;99.90;;;;;;5032170;28;20046;-86
2023/07/31 02:14:56;;;;;;;4.93;2.78;;;16.30;99.90;;;;;;5033475;28;20128;-85
2023/07/31 02:17:21;;;;;;;4.00;2.58;;;16.30;99.90;;;;;;5032014;28;20087;-85
2023/07/31 02:19:47;;;;;;;5.05;2.53;;;16.30;99.90;;;;;;5032356;28;20051;-85
2023/07/31 02:22:13;;;;;;;7.90;2.55;;;16.20;99.90;;;;;;5032125;28;20046;-85
2023/07/31 02:24:38;;;;;;;3.03;2.30;;;16.20;99.90;;;;;;5032039;28;20046;-85
2023/07/31 02:27:04;;;;;;;3.50;2.08;;;16.30;99.90;;;;;;5016387;28;20136;-84
2023/07/31 02:29:30;;;;;;;3.30;2.45;;;16.30;99.90;;;;;;5033352;28;20049;-85
2023/07/31 02:31:56;;;;;;;3.53;2.40;;;16.30;99.90;;;;;;5033455;28;20052;-85
2023/07/31 02:34:22;;;;;;;3.40;2.20;;;16.20;99.90;;;;;;5031930;28;20049;-84
2023/07/31 02:36:47;;;;;;;5.38;2.30;;;16.20;99.90;;;;;;5033453;28;20137;-85
2023/07/31 02:39:13;;;;;;;2.45;2.03;;;16.20;99.90;;;;;;5033255;28;20125;-85
2023/07/31 02:41:39;;;;;;;3.97;2.13;;;16.20;99.90;;;;;;5031498;28;20088;-85
2023/07/31 02:44:04;;;;;;;4.15;2.10;;;16.20;99.90;;;;;;5031741;28;20045;-84
2023/07/31 02:46:30;;;;;;;4.82;2.03;;;16.20;99.90;;;;;;5032286;28;20045;-84
2023/07/31 02:48:56;;;;;;;2.78;1.98;;;16.20;99.90;;;;;;5032951;28;20052;-83
2023/07/31 02:51:21;;;;;;;6.10;2.38;;;16.20;99.90;;;;;;5032724;28;20066;-75
2023/07/31 02:53:48;;;;;;;3.33;2.00;;;16.20;99.90;;;;;;5032757;28;20049;-84
2023/07/31 02:56:13;;;;;;;5.65;2.25;;;16.20;99.90;;;;;;5014488;28;20049;-83
2023/07/31 02:58:39;;;;;;;3.40;2.20;;;16.20;99.90;;;;;;5014503;28;20538;-84
2023/07/31 03:01:05;;;;;;;3.30;1.80;;;16.20;99.90;;;;;;5031563;28;20042;-82
2023/07/31 03:03:31;;;;;;;3.67;2.15;;;16.20;99.90;;;;;;5030706;28;20099;-81
2023/07/31 03:05:56;;;;;;;7.57;2.50;;;16.20;99.90;;;;;;5031589;28;20044;-81
2023/07/31 03:08:22;;;;;;;5.75;2.10;;;16.20;99.90;;;;;;5014519;28;20103;-73
2023/07/31 03:10:48;;;;;;;7.82;2.30;;;16.20;99.90;;;;;;5032099;28;20128;-80
2023/07/31 03:13:14;;;;;;;7.55;2.38;;;16.20;99.90;;;;;;5032193;28;20049;-80
2023/07/31 03:15:43;;;;;;;7.43;2.08;;;16.20;99.90;;;;;;5031727;28;20467;-83
2023/07/31 03:18:08;;;;;;;3.53;1.90;;;16.20;99.90;;;;;;5032224;28;20096;-82
2023/07/31 03:20:34;;;;;;;2.85;1.80;;;16.20;99.90;;;;;;5031697;28;20113;-81
2023/07/31 03:23:00;;;;;;;3.50;2.00;;;16.20;99.90;;;;;;5014822;28;20048;-82
2023/07/31 03:25:26;;;;;;;4.85;1.90;;;16.20;99.90;;;;;;5031782;28;20061;-74
2023/07/31 03:27:51;;;;;;;4.00;1.70;;;16.20;99.90;;;;;;5030863;28;20120;-83
2023/07/31 03:30:17;;;;;;;3.28;1.70;;;16.10;99.90;;;;;;5031142;28;20049;-83
2023/07/31 03:32:43;;;;;;;2.55;1.63;;;16.10;99.90;;;;;;5031659;28;20050;-84
2023/07/31 03:35:08;;;;;;;3.42;1.63;;;16.10;99.90;;;;;;5031362;28;20479;-81
2023/07/31 03:37:34;;;;;;;2.55;1.50;;;16.10;99.90;;;;;;5031531;28;20054;-85
2023/07/31 03:40:00;;;;;;;3.17;1.90;;;16.10;99.90;;;;;;5030768;28;20049;-85
2023/07/31 03:42:26;;;;;;;2.08;1.35;;;16.10;99.90;;;;;;5032384;28;20049;-85
2023/07/31 03:44:51;;;;;;;3.30;1.55;;;16.10;99.90;;;;;;5031485;28;20049;-84
2023/07/31 03:47:17;;;;;;;5.95;1.60;;;16.10;99.90;;;;;;5030490;28;20128;-83
2023/07/31 03:49:43;;;;;;;3.75;1.60;;;16.00;99.90;;;;;;5031635;28;20411;-84
2023/07/31 03:52:08;;;;;;;3.97;1.50;;;16.00;99.90;;;;;;5030400;28;20103;-82
2023/07/31 03:54:34;;;;;;;3.45;1.60;;;16.10;99.90;;;;;;5031359;28;20041;-84
2023/07/31 03:57:00;;;;;;;2.05;1.50;;;16.10;99.90;;;;;;5013890;28;20134;-85
2023/07/31 03:59:25;;;;;;;3.17;1.83;;;16.10;99.90;;;;;;5031525;28;20038;-84
2023/07/31 04:01:51;;;;;;;3.47;1.65;;;16.00;99.90;;;;;;5030124;28;20169;-76
2023/07/31 04:04:17;;;;;;;2.60;1.90;;;16.00;99.90;;;;;;5030500;28;20049;-84
2023/07/31 04:06:42;;;;;;;5.20;1.77;;;16.00;99.90;;;;;;5029906;28;20407;-84
2023/07/31 04:09:08;;;;;;;3.03;1.50;;;16.00;99.90;;;;;;5014719;28;20041;-84
2023/07/31 04:11:34;;;;;;;3.33;1.50;;;16.00;99.90;;;;;;5034182;28;20507;-81
2023/07/31 04:14:00;;;;;;;4.10;1.60;;;16.00;99.90;;;;;;5046032;28;20059;-84
2023/07/31 04:16:25;;;;;;;3.08;1.80;;;16.00;99.90;;;;;;5042780;28;20099;-80
2023/07/31 04:18:51;;;;;;;3.83;1.70;;;16.00;99.90;;;;;;5031926;28;20053;-83
2023/07/31 04:21:17;;;;;;;2.45;1.60;;;16.00;99.90;;;;;;5035231;28;20391;-84
2023/07/31 04:23:43;;;;;;;2.85;1.63;;;16.00;99.90;;;;;;5034289;28;20048;-85
2023/07/31 04:26:08;;;;;;;3.53;1.45;;;16.00;99.90;;;;;;5035707;28;20516;-84
2023/07/31 04:28:34;;;;;;;4.55;1.63;;;16.00;99.90;;;;;;5035175;28;20102;-77
2023/07/31 04:31:00;;;;;;;3.20;1.30;;;16.00;99.90;;;;;;5035237;28;20037;-85
2023/07/31 04:33:26;;;;;;;4.05;1.55;;;16.10;99.90;;;;;;5034171;28;20057;-85
2023/07/31 04:35:52;;;;;;;2.33;1.50;;;16.00;99.90;;;;;;5017505;28;20471;-85
2023/07/31 04:38:19;;;;;;;5.32;1.77;;;16.10;99.90;;;;;;5035275;28;20376;-80
2023/07/31 04:40:45;;;;;;;4.63;1.90;;;16.10;99.90;;;;;;5033867;28;20054;-85
2023/07/31 04:43:11;;;;;;;4.20;1.30;;;16.10;99.90;;;;;;5035203;28;20045;-85
2023/07/31 04:45:37;;;;;;;3.33;1.50;;;16.10;99.90;;;;;;5035114;28;20057;-77
2023/07/31 04:48:02;;;;;;;2.42;1.40;;;16.10;99.90;;;;;;5001581;28;20041;-86
2023/07/31 04:50:30;;;;;;;2.22;1.20;;;16.10;99.90;;;;;;5035058;28;20111;-84
2023/07/31 04:52:56;;;;;;;9.00;1.73;;;16.10;99.90;;;;;;5034655;28;20557;-86
2023/07/31 04:55:21;;;;;;;2.30;1.20;;;16.10;99.90;;;;;;5035222;28;20045;-86
2023/07/31 04:57:47;;;;;;;5.00;1.83;;;16.10;99.90;;;;;;5034758;28;20117;-86
2023/07/31 05:00:13;;;;;;;2.40;1.23;;;16.10;99.90;;;;;;5034741;28;20045;-86
2023/07/31 05:02:38;;;;;;;4.93;1.30;;;16.10;99.90;;;;;;5033618;28;20050;-76
2023/07/31 05:05:04;;;;;;;1.50;1.17;;;16.10;99.90;;;;;;5033618;28;20114;-85
2023/07/31 05:07:30;;;;;;;2.33;1.10;;;16.10;99.90;;;;;;5033815;28;20073;-87
2023/07/31 05:09:55;;;;;;;2.60;1.20;;;16.10;99.90;;;;;;5034442;28;20501;-84
2023/07/31 05:12:21;;;;;;;9.73;1.42;;;16.10;99.90;;;;;;5034776;28;20045;-81
2023/07/31 05:14:47;;;;;;;3.10;1.40;;;16.10;99.90;;;;;;5034252;28;20453;-80
2023/07/31 05:17:12;;;;;;;2.45;1.40;;;16.10;99.90;;;;;;5017194;28;20147;-81
2023/07/31 05:19:38;;;;;;;2.90;1.60;;;16.10;99.90;;;;;;5016868;28;20048;-79
2023/07/31 05:22:04;;;;;;;2.35;1.45;;;16.10;99.90;;;;;;5033913;28;20083;-81
2023/07/31 05:24:30;;;;;;;2.38;1.30;;;16.10;99.90;;;;;;5033959;28;20107;-82
2023/07/31 05:26:55;;;;;;;1.75;1.02;;;16.10;99.90;;;;;;5034324;28;20049;-84
2023/07/31 05:29:21;;;;;;;1.48;0.98;;;16.10;99.90;;;;;;5033849;28;20068;-85
2023/07/31 05:31:55;;;;;;;1.60;1.10;;;16.10;99.90;;;;;;5034569;28;20049;-87
2023/07/31 05:34:20;;;;;;;2.38;1.10;;;16.10;99.90;;;;;;5034556;28;20108;-84
2023/07/31 05:36:46;;;;;;;1.08;0.98;;;16.10;99.90;;;;;;5033028;28;20061;-85
2023/07/31 05:39:12;;;;;;;3.05;1.13;;;16.10;99.90;;;;;;5033042;28;20045;-85
2023/07/31 05:41:38;;;;;;;2.08;0.95;;;16.10;99.90;;;;;;5033241;28;20052;-84
2023/07/31 05:44:03;;;;;;;2.72;0.95;;;16.10;99.90;;;;;;5032265;28;20303;-84
2023/07/31 05:46:30;;;;;;;1.73;1.13;;;16.10;99.90;;;;;;5034078;28;20190;-81
2023/07/31 05:48:56;;;;;;;1.88;1.13;;;16.10;99.90;;;;;;5033615;28;20041;-82
2023/07/31 05:51:22;;;;;;;1.40;1.02;;;16.10;99.90;;;;;;5032349;28;20045;-80
2023/07/31 05:53:48;;;;;;;3.25;1.30;;;16.10;99.90;;;;;;5033443;28;20081;-80
2023/07/31 05:56:13;;;;;;;1.55;1.10;;;16.10;99.90;;;;;;5032874;28;20107;-82
2023/07/31 05:58:39;;;;;;;2.38;1.00;;;16.10;99.90;;;;;;5032670;28;20526;-81
2023/07/31 06:01:05;;;;;;;3.03;1.23;;;16.10;99.90;;;;;;5032488;28;20052;-85
2023/07/31 06:03:30;;;;;;;1.05;1.00;;;16.10;99.90;;;;;;5033862;28;20111;-84
2023/07/31 06:05:56;;;;;;;2.47;1.15;;;16.10;99.90;;;;;;5033793;28;20056;-84
2023/07/31 06:08:22;;;;;;;1.50;1.13;;;16.20;99.90;;;;;;5034146;28;20123;-84
2023/07/31 06:10:47;;;;;;;2.28;1.48;;;16.20;99.90;;;;;;5033745;28;20080;-79
2023/07/31 06:13:13;;;;;;;2.40;1.50;;;16.20;99.90;;;;;;5032048;28;20565;-84
2023/07/31 06:15:39;;;;;;;1.88;1.48;;;16.20;99.90;;;;;;5032559;28;20052;-80
2023/07/31 06:18:07;;;;;;;2.70;1.60;;;16.20;99.90;;;;;;5033203;28;20068;-77
2023/07/31 06:20:34;;;;;;;3.13;1.80;;;16.20;99.90;;;;;;5033837;28;20057;-81
2023/07/31 06:22:59;;;;;;;2.75;1.65;;;16.30;99.90;;;;;;5033203;28;20057;-84
2023/07/31 06:25:25;;;;;;;3.60;1.83;;;16.30;99.90;;;;;;5034085;28;20102;-80
2023/07/31 06:27:51;;;;;;;3.75;1.67;;;16.30;99.90;;;;;;5032137;28;20520;-75
2023/07/31 06:30:17;;;;;;;4.95;2.35;;;16.30;99.90;;;;;;5038317;28;20053;-85
2023/07/31 06:32:43;;;;;;;4.25;2.30;;;16.30;99.90;;;;;;5044737;28;20053;-86
2023/07/31 06:35:08;;;;;;;5.97;3.03;;;16.40;99.90;;;;;;5046620;28;20096;-76
2023/07/31 06:37:34;;;;;;;5.00;3.00;;;16.40;99.90;;;;;;5036860;28;20060;-85
2023/07/31 06:40:00;;;;;;;6.78;3.22;;;16.40;99.90;;;;;;5032191;28;20487;-85
2023/07/31 06:42:26;;;;;;;12.77;4.28;;;16.50;99.90;;;;;;5033213;28;20045;-85
2023/07/31 06:44:51;;;;;;;12.57;4.13;;;16.50;99.90;;;;;;5031952;28;20049;-77
2023/07/31 06:47:17;;;;;;;14.10;4.70;;;16.50;99.90;;;;;;5033655;28;20102;-84
2023/07/31 06:49:43;;;;;;;18.63;5.15;;;16.60;99.90;;;;;;5032549;28;20525;-84
2023/07/31 06:52:09;;;;;;;11.98;4.80;;;16.60;99.90;;;;;;5031498;28;20049;-81
2023/07/31 06:54:35;;;;;;;14.73;5.20;;;16.60;99.90;;;;;;5031487;28;20406;-82
2023/07/31 06:57:00;;;;;;;15.35;4.95;;;16.70;99.90;;;;;;5032305;28;20041;-83
2023/07/31 06:59:26;;;;;;;18.15;5.80;;;16.80;99.90;;;;;;5017270;28;20057;-82
2023/07/31 07:01:52;;;;;;;21.40;6.50;;;16.90;99.90;;;;;;5032494;28;20055;-87
2023/07/31 07:04:18;;;;;;;15.82;6.30;;;17.00;99.90;;;;;;5031318;28;20403;-81
2023/07/31 07:06:43;;;;;;;23.40;6.78;;;17.00;99.90;;;;;;5032361;28;20084;-78
2023/07/31 07:09:09;;;;;;;19.08;5.88;;;17.10;99.90;;;;;;5032273;28;20041;-79
2023/07/31 07:11:37;;;;;;;18.15;5.75;;;17.20;99.90;;;;;;5031216;28;20115;-73
2023/07/31 07:14:02;;;;;;;19.30;5.95;;;17.20;99.90;;;;;;5031674;28;20119;-75
2023/07/31 07:16:28;;;;;;;14.07;6.10;;;17.30;99.90;;;;;;5031008;28;20037;-76
2023/07/31 07:18:54;;;;;;;18.63;6.28;;;17.30;99.90;;;;;;5032158;28;20041;-75
2023/07/31 07:21:20;;;;;;;18.25;6.28;;;17.30;99.90;;;;;;5014183;28;20042;-75
2023/07/31 07:23:45;;;;;;;16.52;5.68;;;17.30;99.90;;;;;;5032791;28;20046;-75
2023/07/31 07:26:11;;;;;;;17.90;5.47;;;17.30;99.90;;;;;;5033485;28;20038;-75
2023/07/31 07:28:37;;;;;;;15.23;5.45;;;17.30;99.90;;;;;;5033740;28;20045;-75
2023/07/31 07:31:03;;;;;;;17.77;5.85;;;17.40;99.90;;;;;;5034095;28;20045;-76
2023/07/31 07:33:29;;;;;;;25.23;6.30;;;17.40;99.90;;;;;;5048584;28;20041;-76
2023/07/31 07:35:54;;;;;;;17.88;6.00;;;17.40;99.90;;;;;;5030586;28;20068;-75
2023/07/31 07:38:20;;;;;;;15.65;5.43;;;17.30;99.90;;;;;;5029698;28;20140;-76
2023/07/31 07:40:50;;;;;;;15.73;5.18;;;17.40;99.90;;;;;;5031856;28;20060;-75
2023/07/31 07:43:16;;;;;;;13.73;4.63;;;17.30;99.90;;;;;;5031519;28;20048;-76
2023/07/31 07:45:41;;;;;;;15.00;4.95;;;17.30;99.90;;;;;;5030703;28;20057;-76
2023/07/31 07:48:07;;;;;;;15.75;5.55;;;17.30;99.90;;;;;;5030298;28;20183;-74
2023/07/31 07:50:33;;;;;;;14.95;6.13;;;17.30;99.90;;;;;;5031889;28;20060;-75
2023/07/31 07:52:58;;;;;;;14.23;5.00;;;17.30;99.90;;;;;;5030677;28;20480;-76
2023/07/31 07:55:24;;;;;;;16.52;5.88;;;17.30;99.90;;;;;;5034105;28;20041;-76
2023/07/31 07:57:50;;;;;;;17.38;5.90;;;17.30;99.90;;;;;;5036031;28;20084;-76
2023/07/31 08:00:17;;;;;;;13.23;5.75;;;17.30;99.90;;;;;;5035431;28;20402;-76
2023/07/31 08:02:43;;;;;;;9.43;4.47;;;17.30;99.90;;;;;;5036129;28;20099;-75
2023/07/31 08:05:09;;;;;;;7.35;2.75;;;17.30;99.90;;;;;;5034297;28;20053;-75
2023/07/31 08:07:35;;;;;;;5.47;2.42;;;17.30;99.90;;;;;;5018387;28;20049;-76
2023/07/31 08:10:01;;;;;;;7.28;2.50;;;17.30;99.90;;;;;;5036053;28;20053;-76
2023/07/31 08:12:27;;;;;;;4.68;1.90;;;17.30;99.90;;;;;;5034108;28;20388;-75
2023/07/31 08:14:53;;;;;;;3.47;1.70;;;17.20;99.90;;;;;;5034730;28;20112;-77
2023/07/31 08:17:18;;;;;;;3.17;1.70;;;17.30;99.90;;;;;;5035260;28;20045;-76
2023/07/31 08:19:44;;;;;;;2.40;1.50;;;17.30;99.90;;;;;;5035580;28;20042;-77
2023/07/31 08:22:10;;;;;;;1.95;1.40;;;17.50;99.90;;;;;;5033842;28;20053;-77
2023/07/31 08:24:36;;;;;;;3.33;1.60;;;17.50;99.90;;;;;;5035557;28;20061;-76
2023/07/31 08:27:02;;;;;;;3.50;1.70;;;17.60;99.90;;;;;;5035609;28;20506;-78
2023/07/31 08:29:27;;;;;;;2.88;1.52;;;17.70;99.90;;;;;;5034758;28;20045;-75
2023/07/31 08:31:53;;;;;;;2.05;1.40;;;17.80;99.90;;;;;;5035376;28;20053;-76
2023/07/31 08:34:19;;;;;;;2.15;1.40;;;17.90;99.90;;;;;;5033748;28;20041;-73
2023/07/31 08:36:44;;;;;;;1.40;1.23;;;18.00;99.90;;;;;;4999409;28;20348;-73
2023/07/31 08:39:10;;;;;;;1.98;1.27;;;17.90;99.90;;;;;;5015567;28;20045;-73
2023/07/31 08:41:39;;;;;;;2.90;1.60;;;18.00;99.90;;;;;;5033838;28;20103;-74
2023/07/31 08:44:05;;;;;;;2.33;1.42;;;18.00;99.90;;;;;;5035358;28;20107;-74
2023/07/31 08:46:32;;;;;;;2.90;1.40;;;18.00;99.90;;;;;;5032627;28;20119;-75
2023/07/31 08:48:59;;;;;;;4.03;1.50;;;18.00;99.90;;;;;;5033541;28;20045;-75
2023/07/31 08:51:25;;;;;;;1.77;1.20;;;18.10;99.90;;;;;;5036350;28;20065;-75
2023/07/31 08:53:53;;;;;;;1.92;1.20;;;18.10;99.90;;;;;;5037879;28;20091;-73
2023/07/31 08:56:19;;;;;;;4.13;1.40;;;18.20;99.90;;;;;;5031400;28;20049;-75
2023/07/31 08:58:50;;;;;;;2.25;1.38;;;18.10;99.90;;;;;;5034841;28;20042;-75
2023/07/31 09:01:17;;;;;;;3.63;1.55;;;18.10;99.90;;;;;;5034570;28;20498;-76
2023/07/31 09:03:44;;;;;;;3.72;1.55;;;18.10;99.90;;;;;;5035521;28;20056;-74
2023/07/31 09:06:29;;;;;;;3.15;1.42;;;18.10;99.90;;;;;;5033866;28;20049;-76
2023/07/31 09:08:55;;;;;;;3.50;1.30;;;18.20;99.90;;;;;;5033647;28;20111;-74
2023/07/31 09:11:22;;;;;;;1.90;1.25;;;18.20;99.90;;;;;;5017322;28;20136;-73
2023/07/31 09:13:49;;;;;;;4.80;2.05;;;18.30;99.90;;;;;;5017898;28;20060;-74
2023/07/31 09:16:17;;;;;;;1.77;1.10;;;18.30;99.90;;;;;;5032829;28;20042;-74
2023/07/31 09:18:55;;;;;;;3.55;1.48;;;18.30;99.90;;;;;;5016062;28;20104;-76
2023/07/31 09:21:21;;;;;;;2.97;1.40;;;18.30;99.90;;;;;;5031294;28;20656;-75
2023/07/31 09:23:52;;;;;;;1.42;1.00;;;18.40;99.90;;;;;;5033148;28;20046;-73
2023/07/31 09:26:31;;;;;;;2.85;0.93;;;18.40;99.90;;;;;;5034453;28;20462;-74
2023/07/31 09:29:04;;;;;;;1.90;1.15;;;18.40;99.90;;;;;;5034445;28;20390;-74
2023/07/31 09:31:33;;;;;;;2.95;1.10;;;18.40;99.90;;;;;;5034136;28;20455;-74
2023/07/31 09:34:00;;;;;;;2.10;1.33;;;18.50;99.90;;;;;;5033103;28;20055;-76
2023/07/31 09:36:30;;;;;;;3.97;1.70;;;18.50;99.90;;;;;;5033466;28;20060;-74
2023/07/31 09:38:58;;;;;;;2.08;1.13;;;18.50;99.90;;;;;;5033408;28;20399;-74
2023/07/31 09:41:23;;;;;;;1.27;1.00;;;18.50;99.90;;;;;;5032233;28;20053;-73
2023/07/31 09:43:55;;;;;;;2.75;1.30;;;18.50;99.90;;;;;;5033557;28;20045;-75
2023/07/31 09:46:24;;;;;;;1.67;1.00;;;18.50;99.90;;;;;;5033489;28;20037;-75
2023/07/31 09:48:49;;;;;;;0.77;0.77;;;18.60;99.90;;;;;;5032941;28;20041;-76
2023/07/31 09:51:15;;;;;;;4.30;1.00;;;18.60;99.90;;;;;;5034004;28;20088;-73
2023/07/31 09:53:41;;;;;;;2.30;1.10;;;18.60;99.90;;;;;;5015859;28;20045;-80
2023/07/31 09:56:07;;;;;;;1.00;0.80;;;18.60;99.90;;;;;;5032781;28;20081;-75
2023/07/31 09:58:35;;;;;;;1.60;0.73;;;18.70;99.90;;;;;;5029807;28;20712;-74
2023/07/31 10:01:02;;;;;;;0.73;0.60;;;18.70;99.90;;;;;;5032633;28;20376;-74
2023/07/31 10:03:31;;;;;;;0.75;0.50;;;18.70;99.90;;;;;;5015547;28;20068;-74
2023/07/31 10:05:58;;;;;;;0.80;0.80;;;18.80;99.90;;;;;;5048867;28;20045;-76
2023/07/31 10:08:29;;;;;;;0.57;0.47;;;18.80;99.90;;;;;;5049158;28;20482;-76
2023/07/31 10:10:59;;;;;;;0.63;0.57;;;18.90;99.90;;;;;;5034071;28;20057;-76
2023/07/31 10:13:27;;;;;;;1.05;0.60;;;19.00;99.90;;;;;;5034563;28;20053;-75
2023/07/31 10:15:54;;;;;;;0.30;0.30;;;19.00;99.90;;;;;;5032468;28;20116;-74
2023/07/31 10:18:20;;;;;;;0.93;0.52;;;19.10;99.90;;;;;;5032809;28;20045;-75
2023/07/31 10:20:47;;;;;;;1.60;0.50;;;19.10;99.90;;;;;;5032119;28;20051;-74
2023/07/31 10:23:13;;;;;;;0.85;0.52;;;19.20;99.90;;;;;;5015927;28;20111;-72
2023/07/31 10:25:39;;;;;;;0.80;0.63;;;19.20;99.90;;;;;;5048059;28;20041;-73
2023/07/31 10:28:06;;;;;;;0.45;0.28;;;19.20;99.90;;;;;;5033155;28;20132;-73
2023/07/31 10:30:34;;;;;;;0.77;0.55;;;19.10;99.90;;;;;;5031574;28;20088;-73
2023/07/31 10:33:01;;;;;;;1.65;0.45;;;19.10;99.90;;;;;;5033298;28;20056;-73
2023/07/31 10:35:28;;;;;;;0.65;0.50;;;19.10;99.90;;;;;;5032732;28;20147;-75
2023/07/31 10:37:54;;;;;;;0.17;0.17;;;19.20;99.90;;;;;;5033126;28;20061;-75
2023/07/31 10:40:27;;;;;;;0.68;0.40;;;19.30;99.90;;;;;;5032257;28;20056;-75
2023/07/31 10:42:59;;;;;;;0.57;0.32;;;19.20;99.90;;;;;;5032081;28;20492;-73
2023/07/31 10:45:32;;;;;;;3.63;0.80;;;19.20;99.90;;;;;;5033075;28;20053;-72
2023/07/31 10:48:05;;;;;;;1.45;0.80;;;19.10;99.90;;;;;;5031802;28;20049;-73
2023/07/31 10:50:32;;;;;;;1.75;0.55;;;19.10;99.90;;;;;;5013710;28;20378;-72
2023/07/31 10:53:00;;;;;;;0.52;0.52;;;19.10;99.90;;;;;;5032425;28;20136;-74
2023/07/31 10:55:39;;;;;;;1.33;0.60;;;19.20;99.90;;;;;;5032640;28;20092;-73
2023/07/31 10:58:10;;;;;;;2.55;0.50;;;19.20;99.90;;;;;;5031916;28;20411;-72
2023/07/31 11:00:41;;;;;;;0.95;0.60;;;19.20;99.90;;;;;;5031480;28;20109;-73
2023/07/31 11:03:13;;;;;;;1.05;0.65;;;19.30;99.90;;;;;;5032005;28;20058;-73
2023/07/31 11:05:57;;;;;;;1.95;0.80;;;19.40;99.90;;;;;;5032359;28;20081;-75
2023/07/31 11:08:24;;;;;;;;;;;19.60;99.90;;;;;;5032351;28;20049;-77
2023/07/31 11:11:11;;;;;;;1.60;1.05;;;19.70;99.90;;;;;;5030654;28;19982;-75
2023/07/31 11:13:43;;;;;;;1.25;0.85;;;19.90;99.90;;;;;;5031989;28;20068;-77
2023/07/31 11:16:10;;;;;;;1.25;0.90;;;19.90;99.90;;;;;;5032726;28;20050;-76
2023/07/31 11:18:38;;;;;;;1.45;0.88;;;19.90;99.90;;;;;;5032310;28;20053;-75
2023/07/31 11:21:03;;;;;;;2.28;1.10;;;20.00;99.90;;;;;;5030767;28;20132;-75
2023/07/31 11:23:31;;;;;;;0.60;0.60;;;19.90;99.90;;;;;;5033283;28;20104;-74
2023/07/31 11:26:00;;;;;;;1.35;0.63;;;19.80;99.90;;;;;;5032116;28;20049;-74
2023/07/31 11:28:25;;;;;;;1.17;0.88;;;19.70;99.90;;;;;;5030861;28;20167;-75
2023/07/31 11:30:51;;;;;;;2.05;0.93;;;19.60;99.90;;;;;;5031973;28;20115;-77
2023/07/31 11:33:17;;;;;;;0.98;0.90;;;19.60;99.90;;;;;;5031639;28;20041;-77
2023/07/31 11:35:46;;;;;;;1.83;1.00;;;19.50;99.90;;;;;;5029423;28;20446;-82
2023/07/31 11:38:22;;;;;;;1.38;1.10;;;19.60;99.90;;;;;;5031434;28;20058;-78
2023/07/31 11:40:48;;;;;;;2.33;1.10;;;19.70;99.90;;;;;;5031248;28;20111;-80
2023/07/31 11:43:16;;;;;;;3.75;1.30;;;19.70;99.90;;;;;;5031996;28;20449;-81
2023/07/31 11:45:46;;;;;;;2.22;1.20;;;19.60;99.90;;;;;;5030894;28;20053;-77
2023/07/31 11:48:26;;;;;;;1.77;1.00;;;19.70;99.90;;;;;;5030010;28;20046;-77
2023/07/31 11:50:53;;;;;;;3.60;1.20;;;19.60;99.90;;;;;;5013880;28;20045;-78
2023/07/31 11:53:28;;;;;;;1.55;0.93;;;19.60;99.90;;;;;;5031423;28;20046;-78
2023/07/31 11:55:55;;;;;;;3.75;1.17;;;19.50;99.90;;;;;;5031031;28;20084;-82
2023/07/31 11:58:21;;;;;;;0.88;0.88;;;19.60;99.90;;;;;;5031553;28;20053;-81
2023/07/31 12:00:49;;;;;;;2.13;1.08;;;19.70;99.90;;;;;;5031563;28;20131;-78
2023/07/31 12:03:15;;;;;;;4.22;1.10;;;19.70;99.90;;;;;;5031384;28;20448;-78
2023/07/31 12:05:40;;;;;;;2.17;1.20;;;19.70;99.90;;;;;;5014243;28;20049;-77
2023/07/31 12:08:12;;;;;;;3.72;1.30;;;19.70;99.90;;;;;;5031893;28;20070;-77
2023/07/31 12:10:40;;;;;;;2.03;1.10;;;19.80;99.90;;;;;;5032144;28;20073;-74
2023/07/31 12:13:13;;;;;;;2.55;1.30;;;19.90;99.90;;;;;;5031729;28;20135;-79
2023/07/31 12:15:41;;;;;;;6.43;1.73;;;19.90;99.90;;;;;;5030980;28;20402;-75
2023/07/31 12:18:08;;;;;;;2.55;1.20;;;19.90;99.90;;;;;;5030988;28;20057;-77
2023/07/31 12:20:34;;;;;;;3.50;1.40;;;20.00;99.90;;;;;;5031420;28;20442;-76
2023/07/31 12:23:00;;;;;;;3.90;1.63;;;20.00;99.90;;;;;;5032019;28;20041;-79
2023/07/31 12:25:30;;;;;;;1.70;1.17;;;20.10;99.90;;;;;;5031978;28;20424;-76
2023/07/31 12:27:57;;;;;;;3.22;1.65;;;20.10;99.90;;;;;;5030665;28;20045;-80
2023/07/31 12:30:32;;;;;;;2.45;1.40;;;20.10;99.90;;;;;;5032775;28;20077;-78
2023/07/31 12:32:57;;;;;;;2.65;1.30;;;20.10;99.90;;;;;;5033564;28;20049;-78
2023/07/31 12:35:34;;;;;;;3.25;1.40;;;20.20;99.90;;;;;;5033585;28;20157;-78
2023/07/31 12:38:02;;;;;;;3.88;1.40;;;20.20;99.90;;;;;;5034131;28;20092;-78
2023/07/31 12:40:27;;;;;;;2.50;1.33;;;20.20;99.90;;;;;;5033391;28;20490;-78
2023/07/31 12:42:53;;;;;;;2.50;1.33;;;20.30;99.90;;;;;;5034626;28;20107;-78
2023/07/31 12:45:20;;;;;;;1.92;1.23;;;20.30;99.90;;;;;;5036070;28;20449;-77